sensor_id;sensor_type;location;lat;lon;timestamp;pressure;altitude;pressure_sealevel;temperature;humidity
31483;BME280;18103;52.246;8.052;2022-07-29T00:02:05;100417.00;;;17.53;58.37
31483;BME280;18103;52.246;8.052;2022-07-29T00:04:34;100416.38;;;17.58;58.12
31483;BME280;18103;52.246;8.052;2022-07-29T00:06:59;100407.66;;;17.56;58.64
31483;BME280;18103;52.246;8.052;2022-07-29T00:09:25;100406.00;;;17.48;58.48
31483;BME280;18103;52.246;8.052;2022-07-29T00:11:50;100406.00;;;17.48;58.70
31483;BME280;18103;52.246;8.052;2022-07-29T00:14:15;100397.94;;;17.48;59.04
31483;BME280;18103;52.246;8.052;2022-07-29T00:16:41;100398.56;;;17.50;59.17
31483;BME280;18103;52.246;8.052;2022-07-29T00:19:06;100396.69;;;17.51;58.56
31483;BME280;18103;52.246;8.052;2022-07-29T00:21:31;100388.63;;;17.44;59.05
31483;BME280;18103;52.246;8.052;2022-07-29T00:23:57;100384.06;;;17.45;59.26
31483;BME280;18103;52.246;8.052;2022-07-29T00:26:22;100382.59;;;17.42;59.34
31483;BME280;18103;52.246;8.052;2022-07-29T00:28:48;100381.78;;;17.42;59.14
31483;BME280;18103;52.246;8.052;2022-07-29T00:31:13;100375.34;;;17.36;59.22
31483;BME280;18103;52.246;8.052;2022-07-29T00:33:38;100377.03;;;17.37;58.72
31483;BME280;18103;52.246;8.052;2022-07-29T00:36:04;100374.09;;;17.45;58.48
31483;BME280;18103;52.246;8.052;2022-07-29T00:38:29;100369.53;;;17.46;59.13
31483;BME280;18103;52.246;8.052;2022-07-29T00:40:55;100360.84;;;17.37;59.92
31483;BME280;18103;52.246;8.052;2022-07-29T00:43:20;100351.31;;;17.28;59.38
31483;BME280;18103;52.246;8.052;2022-07-29T00:45:45;100354.63;;;17.23;60.13
31483;BME280;18103;52.246;8.052;2022-07-29T00:48:11;100360.00;;;17.30;59.52
31483;BME280;18103;52.246;8.052;2022-07-29T00:50:37;100352.97;;;17.29;59.88
31483;BME280;18103;52.246;8.052;2022-07-29T00:53:04;100355.06;;;17.27;59.95
31483;BME280;18103;52.246;8.052;2022-07-29T00:55:31;100348.00;;;17.26;60.18
31483;BME280;18103;52.246;8.052;2022-07-29T00:57:58;100349.44;;;17.22;59.80
31483;BME280;18103;52.246;8.052;2022-07-29T01:00:25;100350.88;;;17.31;59.37
31483;BME280;18103;52.246;8.052;2022-07-29T01:02:51;100348.03;;;17.19;60.07
31483;BME280;18103;52.246;8.052;2022-07-29T01:05:19;100349.25;;;17.23;59.94
31483;BME280;18103;52.246;8.052;2022-07-29T01:07:46;100353.22;;;17.21;59.59
31483;BME280;18103;52.246;8.052;2022-07-29T01:10:14;100351.94;;;17.17;59.72
31483;BME280;18103;52.246;8.052;2022-07-29T01:12:43;100350.50;;;17.14;59.66
31483;BME280;18103;52.246;8.052;2022-07-29T01:15:09;100344.69;;;17.17;59.79
31483;BME280;18103;52.246;8.052;2022-07-29T01:17:45;100352.34;;;17.14;59.52
31483;BME280;18103;52.246;8.052;2022-07-29T01:20:24;100345.31;;;17.13;59.46
31483;BME280;18103;52.246;8.052;2022-07-29T01:28:19;100331.66;;;17.08;59.81
31483;BME280;18103;52.246;8.052;2022-07-29T01:30:47;100335.16;;;17.15;59.71
31483;BME280;18103;52.246;8.052;2022-07-29T01:33:17;100324.41;;;17.02;60.68
31483;BME280;18103;52.246;8.052;2022-07-29T01:36:16;100316.13;;;17.03;60.23
31483;BME280;18103;52.246;8.052;2022-07-29T01:38:44;100316.97;;;17.04;60.87
31483;BME280;18103;52.246;8.052;2022-07-29T01:41:16;100315.69;;;17.00;60.95
31483;BME280;18103;52.246;8.052;2022-07-29T01:43:56;100314.03;;;16.98;61.21
31483;BME280;18103;52.246;8.052;2022-07-29T01:46:31;100312.59;;;17.03;60.76
31483;BME280;18103;52.246;8.052;2022-07-29T01:49:07;100308.47;;;16.93;61.25
31483;BME280;18103;52.246;8.052;2022-07-29T01:51:41;100318.63;;;16.91;62.12
31483;BME280;18103;52.246;8.052;2022-07-29T01:54:20;100323.16;;;16.97;61.16
31483;BME280;18103;52.246;8.052;2022-07-29T01:56:49;100316.75;;;16.98;61.46
31483;BME280;18103;52.246;8.052;2022-07-29T01:59:20;100309.88;;;16.96;61.82
31483;BME280;18103;52.246;8.052;2022-07-29T02:01:47;100311.97;;;16.87;62.38
31483;BME280;18103;52.246;8.052;2022-07-29T02:04:15;100307.22;;;16.89;62.50
31483;BME280;18103;52.246;8.052;2022-07-29T02:06:42;100305.16;;;16.85;61.96
31483;BME280;18103;52.246;8.052;2022-07-29T02:09:10;100296.44;;;16.83;61.14
31483;BME280;18103;52.246;8.052;2022-07-29T02:11:37;100303.50;;;16.77;62.09
31483;BME280;18103;52.246;8.052;2022-07-29T02:14:04;100304.94;;;16.80;62.82
31483;BME280;18103;52.246;8.052;2022-07-29T02:16:32;100300.38;;;16.74;62.65
31483;BME280;18103;52.246;8.052;2022-07-29T02:19:00;100298.53;;;16.68;63.43
31483;BME280;18103;52.246;8.052;2022-07-29T02:21:27;100292.91;;;16.69;63.64
31483;BME280;18103;52.246;8.052;2022-07-29T02:23:55;100292.91;;;16.69;63.34
31483;BME280;18103;52.246;8.052;2022-07-29T02:26:25;100283.81;;;16.64;63.89
31483;BME280;18103;52.246;8.052;2022-07-29T02:28:54;100282.97;;;16.63;63.87
31483;BME280;18103;52.246;8.052;2022-07-29T02:31:23;100278.84;;;16.67;63.73
31483;BME280;18103;52.246;8.052;2022-07-29T02:33:49;100280.50;;;16.62;63.42
31483;BME280;18103;52.246;8.052;2022-07-29T02:36:16;100282.97;;;16.63;63.12
31483;BME280;18103;52.246;8.052;2022-07-29T02:38:43;100280.28;;;16.63;63.41
31483;BME280;18103;52.246;8.052;2022-07-29T02:41:22;100275.53;;;16.65;63.47
31483;BME280;18103;52.246;8.052;2022-07-29T02:43:50;100270.31;;;16.57;63.83
31483;BME280;18103;52.246;8.052;2022-07-29T02:46:21;100283.78;;;16.57;63.84
31483;BME280;18103;52.246;8.052;2022-07-29T02:48:58;100279.63;;;16.54;63.79
31483;BME280;18103;52.246;8.052;2022-07-29T02:51:41;100285.69;;;16.63;63.54
31483;BME280;18103;52.246;8.052;2022-07-29T02:54:34;100281.31;;;16.62;63.50
31483;BME280;18103;52.246;8.052;2022-07-29T02:56:58;100279.84;;;16.53;64.08
31483;BME280;18103;52.246;8.052;2022-07-29T02:59:26;100279.25;;;16.51;64.12
31483;BME280;18103;52.246;8.052;2022-07-29T03:01:54;100282.13;;;16.56;63.19
31483;BME280;18103;52.246;8.052;2022-07-29T03:04:21;100276.53;;;16.51;63.84
31483;BME280;18103;52.246;8.052;2022-07-29T03:06:48;100277.38;;;16.58;63.28
31483;BME280;18103;52.246;8.052;2022-07-29T03:09:14;100277.16;;;16.46;64.35
31483;BME280;18103;52.246;8.052;2022-07-29T03:11:41;100282.53;;;16.46;64.48
31483;BME280;18103;52.246;8.052;2022-07-29T03:14:07;100281.06;;;16.44;64.52
31483;BME280;18103;52.246;8.052;2022-07-29T03:16:33;100282.53;;;16.46;64.51
31483;BME280;18103;52.246;8.052;2022-07-29T03:19:02;100284.81;;;16.43;63.94
31483;BME280;18103;52.246;8.052;2022-07-29T03:21:27;100297.44;;;16.42;63.59
31483;BME280;18103;52.246;8.052;2022-07-29T03:23:55;100284.00;;;16.49;62.94
31483;BME280;18103;52.246;8.052;2022-07-29T03:26:20;100286.44;;;16.44;63.21
31483;BME280;18103;52.246;8.052;2022-07-29T03:28:46;100292.25;;;16.41;64.39
31483;BME280;18103;52.246;8.052;2022-07-29T03:31:11;100296.19;;;16.45;63.92
31483;BME280;18103;52.246;8.052;2022-07-29T03:33:37;100281.69;;;16.46;63.37
31483;BME280;18103;52.246;8.052;2022-07-29T03:36:02;100283.75;;;16.44;63.75
31483;BME280;18103;52.246;8.052;2022-07-29T03:38:29;100277.97;;;16.40;63.75
31483;BME280;18103;52.246;8.052;2022-07-29T03:41:01;100282.53;;;16.33;64.36
31483;BME280;18103;52.246;8.052;2022-07-29T03:43:30;100286.66;;;16.36;63.94
31483;BME280;18103;52.246;8.052;2022-07-29T03:46:00;100279.00;;;16.39;63.50
31483;BME280;18103;52.246;8.052;2022-07-29T03:48:28;100270.94;;;16.46;62.87
31483;BME280;18103;52.246;8.052;2022-07-29T03:50:55;100272.16;;;16.30;64.72
31483;BME280;18103;52.246;8.052;2022-07-29T03:53:21;100270.94;;;16.33;64.50
31483;BME280;18103;52.246;8.052;2022-07-29T03:55:53;100271.34;;;16.30;64.27
31483;BME280;18103;52.246;8.052;2022-07-29T03:58:20;100270.09;;;16.26;64.97
31483;BME280;18103;52.246;8.052;2022-07-29T04:00:46;100274.03;;;16.30;64.52
31483;BME280;18103;52.246;8.052;2022-07-29T04:03:12;100278.78;;;16.28;64.84
31483;BME280;18103;52.246;8.052;2022-07-29T04:05:42;100274.63;;;16.18;65.31
31483;BME280;18103;52.246;8.052;2022-07-29T04:08:07;100270.72;;;16.28;64.46
31483;BME280;18103;52.246;8.052;2022-07-29T04:10:38;100263.47;;;16.21;64.42
31483;BME280;18103;52.246;8.052;2022-07-29T04:13:04;100272.16;;;16.17;64.19
31483;BME280;18103;52.246;8.052;2022-07-29T04:15:29;100268.22;;;16.13;63.96
31483;BME280;18103;52.246;8.052;2022-07-29T04:17:55;100261.38;;;16.10;64.34
31483;BME280;18103;52.246;8.052;2022-07-29T04:20:20;100275.44;;;16.12;64.07
31483;BME280;18103;52.246;8.052;2022-07-29T04:22:45;100263.03;;;16.11;63.90
31483;BME280;18103;52.246;8.052;2022-07-29T04:25:11;100275.44;;;16.12;64.10
31483;BME280;18103;52.246;8.052;2022-07-29T04:27:36;100271.72;;;16.07;64.21
31483;BME280;18103;52.246;8.052;2022-07-29T04:30:21;100272.56;;;16.07;64.65
31483;BME280;18103;52.246;8.052;2022-07-29T04:32:47;100273.38;;;16.08;64.61
31483;BME280;18103;52.246;8.052;2022-07-29T04:35:12;100273.78;;;16.05;64.85
31483;BME280;18103;52.246;8.052;2022-07-29T04:37:37;100267.56;;;16.04;64.02
31483;BME280;18103;52.246;8.052;2022-07-29T04:40:03;100267.56;;;16.04;64.29
31483;BME280;18103;52.246;8.052;2022-07-29T04:42:29;100270.91;;;16.06;63.98
31483;BME280;18103;52.246;8.052;2022-07-29T04:44:57;100267.56;;;16.11;64.21
31483;BME280;18103;52.246;8.052;2022-07-29T04:47:22;100263.84;;;16.05;64.96
31483;BME280;18103;52.246;8.052;2022-07-29T04:49:47;100280.00;;;16.05;65.43
31483;BME280;18103;52.246;8.052;2022-07-29T04:52:13;100276.28;;;16.06;64.75
31483;BME280;18103;52.246;8.052;2022-07-29T04:54:38;100276.91;;;16.08;65.10
31483;BME280;18103;52.246;8.052;2022-07-29T04:57:03;100272.56;;;16.07;65.67
31483;BME280;18103;52.246;8.052;2022-07-29T04:59:32;100265.09;;;16.09;65.55
31483;BME280;18103;52.246;8.052;2022-07-29T05:01:57;100263.47;;;16.08;65.96
31483;BME280;18103;52.246;8.052;2022-07-29T05:04:22;100259.72;;;16.09;66.19
31483;BME280;18103;52.246;8.052;2022-07-29T05:06:48;100270.69;;;16.14;66.06
31483;BME280;18103;52.246;8.052;2022-07-29T05:09:14;100282.50;;;16.13;66.67
31483;BME280;18103;52.246;8.052;2022-07-29T05:11:39;100285.00;;;16.21;66.28
31483;BME280;18103;52.246;8.052;2022-07-29T05:14:08;100282.28;;;16.21;65.94
31483;BME280;18103;52.246;8.052;2022-07-29T05:16:33;100272.97;;;16.17;66.14
31483;BME280;18103;52.246;8.052;2022-07-29T05:18:59;100277.56;;;16.30;65.75
31483;BME280;18103;52.246;8.052;2022-07-29T05:21:27;100267.19;;;16.27;66.10
31483;BME280;18103;52.246;8.052;2022-07-29T05:23:52;100277.56;;;16.30;66.14
31483;BME280;18103;52.246;8.052;2022-07-29T05:26:20;100267.81;;;16.36;65.87
31483;BME280;18103;52.246;8.052;2022-07-29T05:28:46;100256.03;;;16.37;66.70
31483;BME280;18103;52.246;8.052;2022-07-29T05:31:11;100258.09;;;16.35;66.38
31483;BME280;18103;52.246;8.052;2022-07-29T05:33:37;100271.78;;;16.40;66.48
31483;BME280;18103;52.246;8.052;2022-07-29T05:36:05;100267.63;;;16.44;66.37
31483;BME280;18103;52.246;8.052;2022-07-29T05:38:32;100280.03;;;16.45;66.28
31483;BME280;18103;52.246;8.052;2022-07-29T05:40:58;100273.84;;;16.51;66.72
31483;BME280;18103;52.246;8.052;2022-07-29T05:43:29;100276.75;;;16.56;66.68
31483;BME280;18103;52.246;8.052;2022-07-29T05:45:55;100283.34;;;16.53;66.31
31483;BME280;18103;52.246;8.052;2022-07-29T05:48:20;100281.72;;;16.59;66.17
31483;BME280;18103;52.246;8.052;2022-07-29T05:50:46;100280.47;;;16.55;65.28
31483;BME280;18103;52.246;8.052;2022-07-29T05:53:11;100288.78;;;16.60;64.76
31483;BME280;18103;52.246;8.052;2022-07-29T05:55:37;100297.66;;;16.60;65.95
31483;BME280;18103;52.246;8.052;2022-07-29T05:58:02;100296.66;;;16.68;66.02
31483;BME280;18103;52.246;8.052;2022-07-29T06:00:28;100297.47;;;16.62;65.94
31483;BME280;18103;52.246;8.052;2022-07-29T06:02:53;100292.09;;;16.62;65.95
31483;BME280;18103;52.246;8.052;2022-07-29T06:05:18;100282.16;;;16.69;65.07
31483;BME280;18103;52.246;8.052;2022-07-29T06:07:44;100287.75;;;16.81;65.56
31483;BME280;18103;52.246;8.052;2022-07-29T06:10:12;100290.84;;;16.91;65.04
31483;BME280;18103;52.246;8.052;2022-07-29T06:12:37;100297.47;;;16.88;65.12
31483;BME280;18103;52.246;8.052;2022-07-29T06:15:06;100299.56;;;16.93;64.73
31483;BME280;18103;52.246;8.052;2022-07-29T06:17:32;100294.56;;;17.10;63.99
31483;BME280;18103;52.246;8.052;2022-07-29T06:19:57;100294.53;;;17.29;64.78
31483;BME280;18103;52.246;8.052;2022-07-29T06:22:22;100301.09;;;17.40;64.82
31483;BME280;18103;52.246;8.052;2022-07-29T06:24:49;100302.53;;;17.49;64.62
31483;BME280;18103;52.246;8.052;2022-07-29T06:27:14;100309.34;;;17.58;63.83
31483;BME280;18103;52.246;8.052;2022-07-29T06:29:41;100313.09;;;17.70;63.31
31483;BME280;18103;52.246;8.052;2022-07-29T06:32:06;100309.28;;;17.85;62.29
31483;BME280;18103;52.246;8.052;2022-07-29T06:34:34;100308.78;;;18.01;62.46
31483;BME280;18103;52.246;8.052;2022-07-29T06:37:00;100309.34;;;18.16;62.63
31483;BME280;18103;52.246;8.052;2022-07-29T06:39:25;100304.06;;;18.28;61.69
31483;BME280;18103;52.246;8.052;2022-07-29T06:41:51;100308.34;;;18.42;61.25
31483;BME280;18103;52.246;8.052;2022-07-29T06:44:17;100305.34;;;18.57;61.15
31483;BME280;18103;52.246;8.052;2022-07-29T06:46:43;100311.97;;;18.61;60.86
31483;BME280;18103;52.246;8.052;2022-07-29T06:49:09;100316.66;;;18.72;60.73
31483;BME280;18103;52.246;8.052;2022-07-29T06:51:35;100312.84;;;18.79;59.60
31483;BME280;18103;52.246;8.052;2022-07-29T06:54:01;100322.84;;;18.79;60.61
31483;BME280;18103;52.246;8.052;2022-07-29T06:56:28;100319.00;;;18.93;60.59
31483;BME280;18103;52.246;8.052;2022-07-29T06:58:53;100323.06;;;19.02;59.75
31483;BME280;18103;52.246;8.052;2022-07-29T07:01:18;100313.31;;;19.01;59.33
31483;BME280;18103;52.246;8.052;2022-07-29T07:03:44;100314.72;;;19.04;58.96
31483;BME280;18103;52.246;8.052;2022-07-29T07:06:10;100313.59;;;19.11;58.89
31483;BME280;18103;52.246;8.052;2022-07-29T07:08:35;100311.22;;;19.21;59.47
31483;BME280;18103;52.246;8.052;2022-07-29T07:11:01;100314.31;;;19.25;59.67
31483;BME280;18103;52.246;8.052;2022-07-29T07:13:26;100305.69;;;19.35;59.63
31483;BME280;18103;52.246;8.052;2022-07-29T07:15:53;100315.16;;;19.44;59.04
31483;BME280;18103;52.246;8.052;2022-07-29T07:18:18;100318.19;;;19.54;57.93
31483;BME280;18103;52.246;8.052;2022-07-29T07:20:44;100320.75;;;19.67;57.70
31483;BME280;18103;52.246;8.052;2022-07-29T07:23:10;100320.28;;;19.70;58.01
31483;BME280;18103;52.246;8.052;2022-07-29T07:25:35;100322.69;;;19.78;57.01
31483;BME280;18103;52.246;8.052;2022-07-29T07:28:01;100327.31;;;19.89;57.09
31483;BME280;18103;52.246;8.052;2022-07-29T07:30:27;100330.19;;;19.94;56.67
31483;BME280;18103;52.246;8.052;2022-07-29T07:32:53;100324.59;;;20.08;56.35
31483;BME280;18103;52.246;8.052;2022-07-29T07:35:18;100323.00;;;20.18;56.48
31483;BME280;18103;52.246;8.052;2022-07-29T07:37:44;100322.44;;;20.28;56.28
31483;BME280;18103;52.246;8.052;2022-07-29T07:40:10;100327.13;;;20.39;56.41
31483;BME280;18103;52.246;8.052;2022-07-29T07:42:40;100323.69;;;20.44;55.14
31483;BME280;18103;52.246;8.052;2022-07-29T07:45:06;100321.09;;;20.37;54.45
31483;BME280;18103;52.246;8.052;2022-07-29T07:47:34;100329.00;;;20.39;54.82
31483;BME280;18103;52.246;8.052;2022-07-29T07:50:00;100318.84;;;20.34;54.12
31483;BME280;18103;52.246;8.052;2022-07-29T07:52:25;100330.56;;;20.28;54.17
31483;BME280;18103;52.246;8.052;2022-07-29T07:54:53;100327.72;;;20.23;54.57
31483;BME280;18103;52.246;8.052;2022-07-29T07:57:19;100330.88;;;20.38;55.09
31483;BME280;18103;52.246;8.052;2022-07-29T07:59:44;100326.50;;;20.37;55.17
31483;BME280;18103;52.246;8.052;2022-07-29T08:02:09;100317.94;;;20.40;56.94
31483;BME280;18103;52.246;8.052;2022-07-29T08:04:35;100323.59;;;20.50;56.50
31483;BME280;18103;52.246;8.052;2022-07-29T08:07:01;100328.16;;;20.38;55.72
31483;BME280;18103;52.246;8.052;2022-07-29T08:09:28;100319.09;;;20.44;55.28
31483;BME280;18103;52.246;8.052;2022-07-29T08:11:54;100319.34;;;20.43;56.50
31483;BME280;18103;52.246;8.052;2022-07-29T08:14:20;100319.00;;;20.39;55.63
31483;BME280;18103;52.246;8.052;2022-07-29T08:16:48;100324.19;;;20.52;55.15
31483;BME280;18103;52.246;8.052;2022-07-29T08:19:14;100316.66;;;20.54;55.70
31483;BME280;18103;52.246;8.052;2022-07-29T08:21:39;100318.22;;;20.62;55.97
31483;BME280;18103;52.246;8.052;2022-07-29T08:24:05;100313.16;;;20.65;56.24
31483;BME280;18103;52.246;8.052;2022-07-29T08:26:49;100318.84;;;20.76;55.61
31483;BME280;18103;52.246;8.052;2022-07-29T08:29:15;100307.38;;;20.62;54.09
31483;BME280;18103;52.246;8.052;2022-07-29T08:31:41;100314.56;;;20.68;53.86
31483;BME280;18103;52.246;8.052;2022-07-29T08:34:06;100314.13;;;20.83;54.97
31483;BME280;18103;52.246;8.052;2022-07-29T08:36:35;100315.53;;;20.97;54.97
31483;BME280;18103;52.246;8.052;2022-07-29T08:39:01;100318.38;;;21.02;55.07
31483;BME280;18103;52.246;8.052;2022-07-29T08:41:27;100320.16;;;21.20;55.33
31483;BME280;18103;52.246;8.052;2022-07-29T08:43:53;100315.56;;;21.20;54.69
31483;BME280;18103;52.246;8.052;2022-07-29T08:46:19;100329.47;;;21.12;53.95
31483;BME280;18103;52.246;8.052;2022-07-29T08:48:45;100321.22;;;21.30;53.97
31483;BME280;18103;52.246;8.052;2022-07-29T08:51:17;100321.81;;;21.32;54.36
31483;BME280;18103;52.246;8.052;2022-07-29T08:53:44;100321.81;;;21.32;54.98
31483;BME280;18103;52.246;8.052;2022-07-29T08:56:13;100326.88;;;21.40;54.91
31483;BME280;18103;52.246;8.052;2022-07-29T08:58:39;100313.44;;;21.45;54.42
31483;BME280;18103;52.246;8.052;2022-07-29T09:01:05;100315.78;;;21.54;54.27
31483;BME280;18103;52.246;8.052;2022-07-29T09:03:32;100320.94;;;21.67;53.46
31483;BME280;18103;52.246;8.052;2022-07-29T09:06:00;100318.66;;;21.87;53.20
31483;BME280;18103;52.246;8.052;2022-07-29T09:08:26;100314.25;;;22.09;53.75
31483;BME280;18103;52.246;8.052;2022-07-29T09:10:51;100317.91;;;22.32;54.57
31483;BME280;18103;52.246;8.052;2022-07-29T09:13:18;100313.50;;;22.59;53.55
31483;BME280;18103;52.246;8.052;2022-07-29T09:15:44;100313.09;;;22.67;51.60
31483;BME280;18103;52.246;8.052;2022-07-29T09:18:10;100312.03;;;22.68;51.73
31483;BME280;18103;52.246;8.052;2022-07-29T09:20:35;100310.97;;;23.03;51.08
31483;BME280;18103;52.246;8.052;2022-07-29T09:23:19;100314.09;;;23.11;49.14
31483;BME280;18103;52.246;8.052;2022-07-29T09:25:45;100307.28;;;23.09;49.33
31483;BME280;18103;52.246;8.052;2022-07-29T09:28:11;100312.56;;;23.15;49.45
31483;BME280;18103;52.246;8.052;2022-07-29T09:30:57;100323.72;;;23.52;49.39
31483;BME280;18103;52.246;8.052;2022-07-29T09:33:36;100310.66;;;23.54;48.70
31483;BME280;18103;52.246;8.052;2022-07-29T09:38:31;100299.97;;;23.31;48.29
31483;BME280;18103;52.246;8.052;2022-07-29T09:41:01;100299.34;;;23.24;48.88
31483;BME280;18103;52.246;8.052;2022-07-29T09:43:27;100299.84;;;23.21;48.84
31483;BME280;18103;52.246;8.052;2022-07-29T09:45:53;100301.00;;;23.25;49.03
31483;BME280;18103;52.246;8.052;2022-07-29T09:48:21;100308.47;;;23.18;48.37
31483;BME280;18103;52.246;8.052;2022-07-29T09:50:47;100304.47;;;23.04;48.79
31483;BME280;18103;52.246;8.052;2022-07-29T09:53:37;100302.34;;;23.06;49.08
31483;BME280;18103;52.246;8.052;2022-07-29T09:56:03;100296.09;;;22.88;48.51
31483;BME280;18103;52.246;8.052;2022-07-29T09:58:29;100300.22;;;22.91;48.89
31483;BME280;18103;52.246;8.052;2022-07-29T10:00:55;100305.72;;;22.96;48.58
31483;BME280;18103;52.246;8.052;2022-07-29T10:03:21;100313.06;;;22.95;48.57
31483;BME280;18103;52.246;8.052;2022-07-29T10:06:07;100313.53;;;22.92;48.51
31483;BME280;18103;52.246;8.052;2022-07-29T10:08:33;100315.53;;;22.80;49.12
31483;BME280;18103;52.246;8.052;2022-07-29T10:11:13;100311.22;;;22.84;49.01
31483;BME280;18103;52.246;8.052;2022-07-29T10:13:40;100312.56;;;22.99;49.25
31483;BME280;18103;52.246;8.052;2022-07-29T10:16:06;100315.03;;;22.83;48.57
31483;BME280;18103;52.246;8.052;2022-07-29T10:18:32;100316.84;;;22.94;48.82
31483;BME280;18103;52.246;8.052;2022-07-29T10:20:58;100307.63;;;22.95;48.73
31483;BME280;18103;52.246;8.052;2022-07-29T10:23:23;100308.78;;;23.00;48.52
31483;BME280;18103;52.246;8.052;2022-07-29T10:25:50;100310.69;;;22.82;48.12
31483;BME280;18103;52.246;8.052;2022-07-29T10:28:15;100310.25;;;23.07;47.81
31483;BME280;18103;52.246;8.052;2022-07-29T10:30:41;100317.84;;;23.05;48.51
31483;BME280;18103;52.246;8.052;2022-07-29T10:33:29;100309.72;;;23.10;48.20
31483;BME280;18103;52.246;8.052;2022-07-29T10:44:26;100295.56;;;23.47;49.85
31483;BME280;18103;52.246;8.052;2022-07-29T10:46:52;100303.91;;;23.40;49.94
31483;BME280;18103;52.246;8.052;2022-07-29T10:49:27;100295.41;;;23.53;49.46
31483;BME280;18103;52.246;8.052;2022-07-29T10:54:43;100297.41;;;23.41;50.04
31483;BME280;18103;52.246;8.052;2022-07-29T10:57:24;100298.50;;;23.62;50.23
31483;BME280;18103;52.246;8.052;2022-07-29T11:05:13;100295.50;;;23.58;50.11
31483;BME280;18103;52.246;8.052;2022-07-29T11:08:16;100294.03;;;23.51;49.37
31483;BME280;18103;52.246;8.052;2022-07-29T11:10:44;100304.66;;;23.52;49.54
31483;BME280;18103;52.246;8.052;2022-07-29T11:13:12;100296.50;;;23.52;50.70
31483;BME280;18103;52.246;8.052;2022-07-29T11:15:58;100293.66;;;23.47;50.21
31483;BME280;18103;52.246;8.052;2022-07-29T11:18:23;100297.06;;;23.54;50.74
31483;BME280;18103;52.246;8.052;2022-07-29T11:20:50;100287.56;;;23.57;50.73
31483;BME280;18103;52.246;8.052;2022-07-29T11:25:44;100289.41;;;23.51;49.96
31483;BME280;18103;52.246;8.052;2022-07-29T11:28:16;100291.88;;;23.36;50.03
31483;BME280;18103;52.246;8.052;2022-07-29T11:30:50;100282.31;;;23.50;49.85
31483;BME280;18103;52.246;8.052;2022-07-29T11:33:30;100294.34;;;23.54;50.10
31483;BME280;18103;52.246;8.052;2022-07-29T11:36:25;100284.19;;;23.72;50.93
31483;BME280;18103;52.246;8.052;2022-07-29T11:38:51;100286.88;;;23.66;51.15
31483;BME280;18103;52.246;8.052;2022-07-29T11:41:26;100289.16;;;23.75;50.96
31483;BME280;18103;52.246;8.052;2022-07-29T11:44:01;100285.28;;;23.70;51.09
31483;BME280;18103;52.246;8.052;2022-07-29T11:49:24;100291.66;;;24.03;51.44
31483;BME280;18103;52.246;8.052;2022-07-29T11:51:52;100275.81;;;24.00;50.87
31483;BME280;18103;52.246;8.052;2022-07-29T11:54:24;100273.66;;;24.02;51.12
31483;BME280;18103;52.246;8.052;2022-07-29T11:56:51;100280.22;;;24.06;51.45
31483;BME280;18103;52.246;8.052;2022-07-29T11:59:17;100283.66;;;23.96;50.42
31483;BME280;18103;52.246;8.052;2022-07-29T12:01:54;100274.06;;;23.89;48.83
31483;BME280;18103;52.246;8.052;2022-07-29T12:04:20;100286.41;;;23.96;49.12
31483;BME280;18103;52.246;8.052;2022-07-29T12:06:55;100272.59;;;24.03;51.04
31483;BME280;18103;52.246;8.052;2022-07-29T12:09:22;100280.94;;;23.96;52.11
31483;BME280;18103;52.246;8.052;2022-07-29T12:11:48;100280.31;;;23.89;51.21
31483;BME280;18103;52.246;8.052;2022-07-29T12:14:26;100270.59;;;23.93;51.77
31483;BME280;18103;52.246;8.052;2022-07-29T12:16:51;100275.13;;;23.88;50.73
31483;BME280;18103;52.246;8.052;2022-07-29T12:19:17;100272.13;;;23.84;50.69
31483;BME280;18103;52.246;8.052;2022-07-29T12:21:47;100276.59;;;23.74;50.45
31483;BME280;18103;52.246;8.052;2022-07-29T12:24:13;100275.50;;;23.69;51.16
31483;BME280;18103;52.246;8.052;2022-07-29T12:26:59;100273.00;;;23.68;50.96
31483;BME280;18103;52.246;8.052;2022-07-29T12:29:25;100278.25;;;23.75;51.18
31483;BME280;18103;52.246;8.052;2022-07-29T12:31:53;100279.81;;;23.70;52.35
31483;BME280;18103;52.246;8.052;2022-07-29T12:34:23;100280.94;;;23.69;52.41
31483;BME280;18103;52.246;8.052;2022-07-29T12:36:49;100286.38;;;23.69;52.22
31483;BME280;18103;52.246;8.052;2022-07-29T12:39:18;100285.09;;;23.55;51.55
31483;BME280;18103;52.246;8.052;2022-07-29T12:41:46;100293.00;;;23.57;51.55
31483;BME280;18103;52.246;8.052;2022-07-29T12:44:11;100287.31;;;23.58;51.39
31483;BME280;18103;52.246;8.052;2022-07-29T12:46:37;100286.75;;;23.56;51.84
31483;BME280;18103;52.246;8.052;2022-07-29T12:49:03;100280.28;;;23.62;53.52
31483;BME280;18103;52.246;8.052;2022-07-29T12:51:46;100280.31;;;23.46;53.52
31483;BME280;18103;52.246;8.052;2022-07-29T12:54:14;100286.00;;;23.44;52.61
31483;BME280;18103;52.246;8.052;2022-07-29T12:56:41;100290.94;;;23.25;53.07
31483;BME280;18103;52.246;8.052;2022-07-29T12:59:13;100282.63;;;23.37;52.45
31483;BME280;18103;52.246;8.052;2022-07-29T13:01:39;100285.31;;;23.32;52.67
31483;BME280;18103;52.246;8.052;2022-07-29T13:04:05;100289.44;;;23.18;52.68
31483;BME280;18103;52.246;8.052;2022-07-29T13:06:35;100289.97;;;23.15;53.15
31483;BME280;18103;52.246;8.052;2022-07-29T13:11:32;100288.50;;;22.90;53.69
31483;BME280;18103;52.246;8.052;2022-07-29T13:13:58;100282.97;;;22.85;53.61
31483;BME280;18103;52.246;8.052;2022-07-29T13:16:23;100283.41;;;22.77;53.74
31483;BME280;18103;52.246;8.052;2022-07-29T13:19:07;100289.81;;;22.71;54.72
31483;BME280;18103;52.246;8.052;2022-07-29T13:21:32;100281.00;;;22.64;55.02
31483;BME280;18103;52.246;8.052;2022-07-29T13:23:58;100279.66;;;22.67;55.75
31483;BME280;18103;52.246;8.052;2022-07-29T13:26:23;100278.19;;;22.76;55.96
31483;BME280;18103;52.246;8.052;2022-07-29T13:28:48;100285.03;;;22.62;57.95